sensor_id;sensor_type;location;lat;lon;timestamp;P1;P2;P0
12542;PMS3003;6337;49.556;25.594;2022-09-23T00:00:33;6.67;5.23;
12542;PMS3003;6337;49.556;25.594;2022-09-23T00:03:00;5.93;4.90;
12542;PMS3003;6337;49.556;25.594;2022-09-23T00:05:28;6.63;5.20;
12542;PMS3003;6337;49.556;25.594;2022-09-23T00:07:57;6.17;5.37;
12542;PMS3003;6337;49.556;25.594;2022-09-23T00:10:26;5.50;4.90;
12542;PMS3003;6337;49.556;25.594;2022-09-23T00:12:55;5.07;4.57;
12542;PMS3003;6337;49.556;25.594;2022-09-23T00:15:23;8.47;4.63;
12542;PMS3003;6337;49.556;25.594;2022-09-23T00:17:54;5.33;4.03;
12542;PMS3003;6337;49.556;25.594;2022-09-23T00:20:21;5.90;4.00;
12542;PMS3003;6337;49.556;25.594;2022-09-23T00:22:48;7.10;6.00;
12542;PMS3003;6337;49.556;25.594;2022-09-23T00:25:17;4.00;3.53;
12542;PMS3003;6337;49.556;25.594;2022-09-23T00:27:45;7.60;6.37;
12542;PMS3003;6337;49.556;25.594;2022-09-23T00:30:12;6.80;5.10;
12542;PMS3003;6337;49.556;25.594;2022-09-23T00:32:39;4.67;4.17;
12542;PMS3003;6337;49.556;25.594;2022-09-23T00:35:06;4.97;4.50;
12542;PMS3003;6337;49.556;25.594;2022-09-23T00:37:34;5.27;4.47;
12542;PMS3003;6337;49.556;25.594;2022-09-23T00:40:02;6.07;5.47;
12542;PMS3003;6337;49.556;25.594;2022-09-23T00:42:31;6.63;4.03;
12542;PMS3003;6337;49.556;25.594;2022-09-23T00:44:58;4.70;4.37;
12542;PMS3003;6337;49.556;25.594;2022-09-23T00:47:28;7.10;5.17;
12542;PMS3003;6337;49.556;25.594;2022-09-23T00:49:59;4.40;3.60;
12542;PMS3003;6337;49.556;25.594;2022-09-23T00:52:31;8.50;7.57;
12542;PMS3003;6337;49.556;25.594;2022-09-23T00:54:59;10.93;8.00;
12542;PMS3003;6337;49.556;25.594;2022-09-23T01:00:14;7.80;4.43;
12542;PMS3003;6337;49.556;25.594;2022-09-23T01:02:41;4.93;4.43;
12542;PMS3003;6337;49.556;25.594;2022-09-23T01:05:08;7.33;4.97;
12542;PMS3003;6337;49.556;25.594;2022-09-23T01:07:35;9.20;5.30;
12542;PMS3003;6337;49.556;25.594;2022-09-23T01:10:03;5.10;4.60;
12542;PMS3003;6337;49.556;25.594;2022-09-23T01:12:45;5.00;4.60;
12542;PMS3003;6337;49.556;25.594;2022-09-23T01:15:23;7.83;5.53;
12542;PMS3003;6337;49.556;25.594;2022-09-23T01:17:56;8.23;6.37;
12542;PMS3003;6337;49.556;25.594;2022-09-23T01:26:50;13.90;7.30;
12542;PMS3003;6337;49.556;25.594;2022-09-23T01:29:50;12.13;7.97;
12542;PMS3003;6337;49.556;25.594;2022-09-23T01:32:44;8.77;6.50;
12542;PMS3003;6337;49.556;25.594;2022-09-23T01:35:24;9.50;7.20;
12542;PMS3003;6337;49.556;25.594;2022-09-23T01:37:56;11.70;8.13;
12542;PMS3003;6337;49.556;25.594;2022-09-23T01:40:28;11.30;8.03;
12542;PMS3003;6337;49.556;25.594;2022-09-23T01:43:01;11.57;9.60;
12542;PMS3003;6337;49.556;25.594;2022-09-23T01:45:32;12.27;10.03;
12542;PMS3003;6337;49.556;25.594;2022-09-23T01:48:06;14.10;9.07;
12542;PMS3003;6337;49.556;25.594;2022-09-23T01:50:41;14.83;10.37;
12542;PMS3003;6337;49.556;25.594;2022-09-23T01:53:23;10.67;8.47;
12542;PMS3003;6337;49.556;25.594;2022-09-23T01:55:56;12.50;7.80;
12542;PMS3003;6337;49.556;25.594;2022-09-23T01:58:26;8.73;7.83;
12542;PMS3003;6337;49.556;25.594;2022-09-23T02:00:56;12.53;8.73;
12542;PMS3003;6337;49.556;25.594;2022-09-23T02:03:28;8.43;7.53;
12542;PMS3003;6337;49.556;25.594;2022-09-23T02:05:58;12.10;8.57;
12542;PMS3003;6337;49.556;25.594;2022-09-23T02:08:28;9.57;7.23;
12542;PMS3003;6337;49.556;25.594;2022-09-23T02:10:59;8.87;7.53;
12542;PMS3003;6337;49.556;25.594;2022-09-23T02:13:30;14.77;6.80;
12542;PMS3003;6337;49.556;25.594;2022-09-23T02:16:00;7.50;6.77;
12542;PMS3003;6337;49.556;25.594;2022-09-23T02:18:32;8.17;7.00;
12542;PMS3003;6337;49.556;25.594;2022-09-23T02:21:06;14.70;6.90;
12542;PMS3003;6337;49.556;25.594;2022-09-23T02:23:36;9.03;6.80;
12542;PMS3003;6337;49.556;25.594;2022-09-23T02:26:13;12.13;8.10;
12542;PMS3003;6337;49.556;25.594;2022-09-23T02:28:46;12.20;8.40;
12542;PMS3003;6337;49.556;25.594;2022-09-23T02:31:20;10.77;9.00;
12542;PMS3003;6337;49.556;25.594;2022-09-23T02:33:55;11.43;7.80;
12542;PMS3003;6337;49.556;25.594;2022-09-23T02:36:27;11.70;8.63;
12542;PMS3003;6337;49.556;25.594;2022-09-23T02:38:56;14.57;9.20;
12542;PMS3003;6337;49.556;25.594;2022-09-23T02:41:29;19.43;12.40;
12542;PMS3003;6337;49.556;25.594;2022-09-23T02:44:01;12.57;9.57;
12542;PMS3003;6337;49.556;25.594;2022-09-23T02:46:30;17.23;9.40;
12542;PMS3003;6337;49.556;25.594;2022-09-23T02:48:59;23.70;12.00;
12542;PMS3003;6337;49.556;25.594;2022-09-23T02:51:29;23.60;12.73;
12542;PMS3003;6337;49.556;25.594;2022-09-23T02:53:58;31.87;14.30;
12542;PMS3003;6337;49.556;25.594;2022-09-23T02:56:27;29.37;16.57;
12542;PMS3003;6337;49.556;25.594;2022-09-23T02:58:55;28.77;14.60;
12542;PMS3003;6337;49.556;25.594;2022-09-23T03:01:24;18.73;12.30;
12542;PMS3003;6337;49.556;25.594;2022-09-23T03:04:03;19.57;12.03;
12542;PMS3003;6337;49.556;25.594;2022-09-23T03:06:37;21.90;12.27;
12542;PMS3003;6337;49.556;25.594;2022-09-23T03:09:11;23.30;13.83;
12542;PMS3003;6337;49.556;25.594;2022-09-23T03:11:43;19.40;12.73;
12542;PMS3003;6337;49.556;25.594;2022-09-23T03:14:15;23.60;13.60;
12542;PMS3003;6337;49.556;25.594;2022-09-23T03:16:49;23.37;14.47;
12542;PMS3003;6337;49.556;25.594;2022-09-23T03:19:24;23.53;15.00;
12542;PMS3003;6337;49.556;25.594;2022-09-23T03:21:57;20.20;13.73;
12542;PMS3003;6337;49.556;25.594;2022-09-23T03:24:28;19.63;13.30;
12542;PMS3003;6337;49.556;25.594;2022-09-23T03:26:56;22.97;13.43;
12542;PMS3003;6337;49.556;25.594;2022-09-23T03:29:26;18.33;11.93;
12542;PMS3003;6337;49.556;25.594;2022-09-23T03:31:54;18.60;11.73;
12542;PMS3003;6337;49.556;25.594;2022-09-23T03:34:25;20.90;12.90;
12542;PMS3003;6337;49.556;25.594;2022-09-23T03:36:54;26.40;13.77;
12542;PMS3003;6337;49.556;25.594;2022-09-23T03:39:28;21.83;13.27;
12542;PMS3003;6337;49.556;25.594;2022-09-23T03:41:58;19.57;14.00;
12542;PMS3003;6337;49.556;25.594;2022-09-23T03:44:28;23.50;13.77;
12542;PMS3003;6337;49.556;25.594;2022-09-23T03:46:57;18.20;12.03;
12542;PMS3003;6337;49.556;25.594;2022-09-23T03:49:27;20.30;12.40;
12542;PMS3003;6337;49.556;25.594;2022-09-23T03:51:57;19.77;13.10;
12542;PMS3003;6337;49.556;25.594;2022-09-23T03:54:25;20.73;11.60;
12542;PMS3003;6337;49.556;25.594;2022-09-23T03:56:54;19.10;12.47;
12542;PMS3003;6337;49.556;25.594;2022-09-23T03:59:21;22.47;13.63;
12542;PMS3003;6337;49.556;25.594;2022-09-23T04:01:48;21.50;13.80;
12542;PMS3003;6337;49.556;25.594;2022-09-23T04:04:16;18.03;12.93;
12542;PMS3003;6337;49.556;25.594;2022-09-23T04:06:45;21.93;13.37;
12542;PMS3003;6337;49.556;25.594;2022-09-23T04:09:14;20.20;13.90;
12542;PMS3003;6337;49.556;25.594;2022-09-23T04:11:41;20.03;11.87;
12542;PMS3003;6337;49.556;25.594;2022-09-23T04:14:09;23.33;14.50;
12542;PMS3003;6337;49.556;25.594;2022-09-23T04:16:36;21.20;14.70;
12542;PMS3003;6337;49.556;25.594;2022-09-23T04:19:03;24.10;13.93;
12542;PMS3003;6337;49.556;25.594;2022-09-23T04:21:30;23.90;14.33;
12542;PMS3003;6337;49.556;25.594;2022-09-23T04:23:59;28.13;15.23;
12542;PMS3003;6337;49.556;25.594;2022-09-23T04:26:28;26.90;16.20;
12542;PMS3003;6337;49.556;25.594;2022-09-23T04:28:55;29.97;16.77;
12542;PMS3003;6337;49.556;25.594;2022-09-23T04:31:22;33.03;16.50;
12542;PMS3003;6337;49.556;25.594;2022-09-23T04:33:51;27.30;15.53;
12542;PMS3003;6337;49.556;25.594;2022-09-23T04:36:18;26.57;15.77;
12542;PMS3003;6337;49.556;25.594;2022-09-23T04:38:46;35.00;19.20;
12542;PMS3003;6337;49.556;25.594;2022-09-23T04:41:15;21.97;13.70;
12542;PMS3003;6337;49.556;25.594;2022-09-23T04:43:43;23.77;15.87;
12542;PMS3003;6337;49.556;25.594;2022-09-23T04:46:12;28.47;15.47;
12542;PMS3003;6337;49.556;25.594;2022-09-23T04:48:39;27.10;16.40;
12542;PMS3003;6337;49.556;25.594;2022-09-23T04:51:08;23.27;14.73;
12542;PMS3003;6337;49.556;25.594;2022-09-23T04:53:37;26.80;13.93;
12542;PMS3003;6337;49.556;25.594;2022-09-23T04:56:06;27.07;15.33;
12542;PMS3003;6337;49.556;25.594;2022-09-23T04:58:36;28.27;14.30;
12542;PMS3003;6337;49.556;25.594;2022-09-23T05:01:08;24.83;14.70;
12542;PMS3003;6337;49.556;25.594;2022-09-23T05:03:41;24.40;14.10;
12542;PMS3003;6337;49.556;25.594;2022-09-23T05:06:09;28.37;14.13;
12542;PMS3003;6337;49.556;25.594;2022-09-23T05:08:37;20.50;13.77;
12542;PMS3003;6337;49.556;25.594;2022-09-23T05:11:07;23.87;14.97;
12542;PMS3003;6337;49.556;25.594;2022-09-23T05:13:37;22.00;14.20;
12542;PMS3003;6337;49.556;25.594;2022-09-23T05:16:08;27.27;15.20;
12542;PMS3003;6337;49.556;25.594;2022-09-23T05:18:40;23.77;14.03;
12542;PMS3003;6337;49.556;25.594;2022-09-23T05:21:08;21.87;13.90;
12542;PMS3003;6337;49.556;25.594;2022-09-23T05:23:38;20.50;11.30;
12542;PMS3003;6337;49.556;25.594;2022-09-23T05:26:07;24.63;14.87;
12542;PMS3003;6337;49.556;25.594;2022-09-23T05:28:35;20.93;12.30;
12542;PMS3003;6337;49.556;25.594;2022-09-23T05:31:05;24.20;16.13;
12542;PMS3003;6337;49.556;25.594;2022-09-23T05:33:34;24.70;15.60;
12542;PMS3003;6337;49.556;25.594;2022-09-23T05:36:02;30.23;14.70;
12542;PMS3003;6337;49.556;25.594;2022-09-23T05:38:30;28.37;17.57;
12542;PMS3003;6337;49.556;25.594;2022-09-23T05:40:58;22.20;14.73;
12542;PMS3003;6337;49.556;25.594;2022-09-23T05:43:27;26.10;17.10;
12542;PMS3003;6337;49.556;25.594;2022-09-23T05:46:00;26.07;16.97;
12542;PMS3003;6337;49.556;25.594;2022-09-23T05:48:29;30.30;18.03;
12542;PMS3003;6337;49.556;25.594;2022-09-23T05:50:58;33.30;18.97;
12542;PMS3003;6337;49.556;25.594;2022-09-23T05:53:29;27.23;17.93;
12542;PMS3003;6337;49.556;25.594;2022-09-23T05:55:56;35.13;17.57;
12542;PMS3003;6337;49.556;25.594;2022-09-23T05:58:24;29.37;16.10;
12542;PMS3003;6337;49.556;25.594;2022-09-23T06:00:52;31.47;18.97;
12542;PMS3003;6337;49.556;25.594;2022-09-23T06:03:23;30.93;17.90;
12542;PMS3003;6337;49.556;25.594;2022-09-23T06:05:53;31.83;18.03;
12542;PMS3003;6337;49.556;25.594;2022-09-23T06:08:21;41.13;19.30;
12542;PMS3003;6337;49.556;25.594;2022-09-23T06:10:49;26.70;16.00;
12542;PMS3003;6337;49.556;25.594;2022-09-23T06:13:16;22.67;13.63;
12542;PMS3003;6337;49.556;25.594;2022-09-23T06:15:43;21.03;12.47;
12542;PMS3003;6337;49.556;25.594;2022-09-23T06:18:11;17.07;9.90;
12542;PMS3003;6337;49.556;25.594;2022-09-23T06:20:38;17.60;10.53;
12542;PMS3003;6337;49.556;25.594;2022-09-23T06:23:08;17.70;9.80;
12542;PMS3003;6337;49.556;25.594;2022-09-23T06:25:36;15.17;9.87;
12542;PMS3003;6337;49.556;25.594;2022-09-23T06:28:03;14.87;9.63;
12542;PMS3003;6337;49.556;25.594;2022-09-23T06:30:36;13.40;8.97;
12542;PMS3003;6337;49.556;25.594;2022-09-23T06:33:04;12.53;9.40;
12542;PMS3003;6337;49.556;25.594;2022-09-23T06:35:32;14.07;7.97;
12542;PMS3003;6337;49.556;25.594;2022-09-23T06:38:01;12.93;8.70;
12542;PMS3003;6337;49.556;25.594;2022-09-23T06:40:32;20.77;10.77;
12542;PMS3003;6337;49.556;25.594;2022-09-23T06:42:59;15.83;9.90;
12542;PMS3003;6337;49.556;25.594;2022-09-23T06:45:27;18.53;10.27;
12542;PMS3003;6337;49.556;25.594;2022-09-23T06:47:54;10.27;7.90;
12542;PMS3003;6337;49.556;25.594;2022-09-23T06:50:23;11.73;6.90;
12542;PMS3003;6337;49.556;25.594;2022-09-23T06:52:51;12.77;8.67;
12542;PMS3003;6337;49.556;25.594;2022-09-23T06:55:20;11.17;8.27;
12542;PMS3003;6337;49.556;25.594;2022-09-23T06:57:52;11.20;8.60;
12542;PMS3003;6337;49.556;25.594;2022-09-23T07:00:20;14.37;8.97;
12542;PMS3003;6337;49.556;25.594;2022-09-23T07:02:47;12.77;9.70;
12542;PMS3003;6337;49.556;25.594;2022-09-23T07:05:14;12.63;8.47;
12542;PMS3003;6337;49.556;25.594;2022-09-23T07:07:41;9.20;7.17;
12542;PMS3003;6337;49.556;25.594;2022-09-23T07:10:10;10.47;7.77;
12542;PMS3003;6337;49.556;25.594;2022-09-23T07:12:38;9.33;7.43;
12542;PMS3003;6337;49.556;25.594;2022-09-23T07:15:09;12.03;7.27;
12542;PMS3003;6337;49.556;25.594;2022-09-23T07:17:39;14.57;8.23;
12542;PMS3003;6337;49.556;25.594;2022-09-23T07:20:07;10.53;7.00;
12542;PMS3003;6337;49.556;25.594;2022-09-23T07:22:35;9.33;6.00;
12542;PMS3003;6337;49.556;25.594;2022-09-23T07:25:03;10.10;7.07;
12542;PMS3003;6337;49.556;25.594;2022-09-23T07:27:32;20.43;7.00;
12542;PMS3003;6337;49.556;25.594;2022-09-23T07:29:59;7.27;5.53;
12542;PMS3003;6337;49.556;25.594;2022-09-23T07:32:28;11.97;6.23;
12542;PMS3003;6337;49.556;25.594;2022-09-23T07:34:56;6.60;5.80;
12542;PMS3003;6337;49.556;25.594;2022-09-23T07:37:23;7.17;5.90;
12542;PMS3003;6337;49.556;25.594;2022-09-23T07:39:51;8.50;6.43;
12542;PMS3003;6337;49.556;25.594;2022-09-23T07:42:20;8.87;6.30;
12542;PMS3003;6337;49.556;25.594;2022-09-23T07:44:47;7.43;5.20;
12542;PMS3003;6337;49.556;25.594;2022-09-23T07:47:14;8.47;6.87;
12542;PMS3003;6337;49.556;25.594;2022-09-23T07:49:44;10.10;5.97;
12542;PMS3003;6337;49.556;25.594;2022-09-23T07:52:11;12.47;6.73;
12542;PMS3003;6337;49.556;25.594;2022-09-23T07:54:39;9.90;6.47;
12542;PMS3003;6337;49.556;25.594;2022-09-23T07:57:07;8.27;5.37;
12542;PMS3003;6337;49.556;25.594;2022-09-23T07:59:34;10.40;5.77;
12542;PMS3003;6337;49.556;25.594;2022-09-23T08:02:01;7.33;5.00;
12542;PMS3003;6337;49.556;25.594;2022-09-23T08:04:29;8.43;7.40;
12542;PMS3003;6337;49.556;25.594;2022-09-23T08:06:59;6.40;4.73;
12542;PMS3003;6337;49.556;25.594;2022-09-23T08:09:28;21.77;5.40;
12542;PMS3003;6337;49.556;25.594;2022-09-23T08:11:57;8.13;5.50;
12542;PMS3003;6337;49.556;25.594;2022-09-23T08:14:24;7.37;5.60;
12542;PMS3003;6337;49.556;25.594;2022-09-23T08:16:51;9.47;5.60;
12542;PMS3003;6337;49.556;25.594;2022-09-23T08:19:19;8.07;5.00;
12542;PMS3003;6337;49.556;25.594;2022-09-23T08:21:46;5.57;4.13;
12542;PMS3003;6337;49.556;25.594;2022-09-23T08:24:18;7.93;4.93;
12542;PMS3003;6337;49.556;25.594;2022-09-23T08:26:47;6.90;4.20;
12542;PMS3003;6337;49.556;25.594;2022-09-23T08:29:17;10.23;6.37;
12542;PMS3003;6337;49.556;25.594;2022-09-23T08:31:45;6.80;4.80;
12542;PMS3003;6337;49.556;25.594;2022-09-23T08:34:13;7.20;5.87;
12542;PMS3003;6337;49.556;25.594;2022-09-23T08:36:41;5.00;4.50;
12542;PMS3003;6337;49.556;25.594;2022-09-23T08:39:08;9.93;4.10;
12542;PMS3003;6337;49.556;25.594;2022-09-23T08:41:42;6.30;4.60;
12542;PMS3003;6337;49.556;25.594;2022-09-23T08:44:13;6.90;4.57;
12542;PMS3003;6337;49.556;25.594;2022-09-23T08:46:45;9.53;5.60;
12542;PMS3003;6337;49.556;25.594;2022-09-23T08:49:21;14.83;8.23;
12542;PMS3003;6337;49.556;25.594;2022-09-23T08:51:51;8.00;5.27;
12542;PMS3003;6337;49.556;25.594;2022-09-23T08:54:19;8.60;5.90;
12542;PMS3003;6337;49.556;25.594;2022-09-23T08:56:49;7.87;5.00;
12542;PMS3003;6337;49.556;25.594;2022-09-23T08:59:17;6.97;4.87;
12542;PMS3003;6337;49.556;25.594;2022-09-23T09:01:47;9.10;5.40;
12542;PMS3003;6337;49.556;25.594;2022-09-23T09:04:17;10.27;5.30;
12542;PMS3003;6337;49.556;25.594;2022-09-23T09:06:49;5.90;4.50;
12542;PMS3003;6337;49.556;25.594;2022-09-23T09:09:20;12.80;5.30;
12542;PMS3003;6337;49.556;25.594;2022-09-23T09:11:51;6.47;4.77;
12542;PMS3003;6337;49.556;25.594;2022-09-23T09:14:34;10.80;5.17;
12542;PMS3003;6337;49.556;25.594;2022-09-23T09:17:08;13.13;5.73;
12542;PMS3003;6337;49.556;25.594;2022-09-23T09:22:41;5.20;4.40;
12542;PMS3003;6337;49.556;25.594;2022-09-23T09:25:22;7.07;4.60;
12542;PMS3003;6337;49.556;25.594;2022-09-23T09:28:00;4.70;4.20;
12542;PMS3003;6337;49.556;25.594;2022-09-23T09:30:27;6.20;4.47;
12542;PMS3003;6337;49.556;25.594;2022-09-23T09:32:56;5.60;3.93;
12542;PMS3003;6337;49.556;25.594;2022-09-23T09:35:27;6.77;4.77;
12542;PMS3003;6337;49.556;25.594;2022-09-23T09:38:01;6.20;5.07;
12542;PMS3003;6337;49.556;25.594;2022-09-23T09:40:30;6.03;4.93;
12542;PMS3003;6337;49.556;25.594;2022-09-23T09:43:00;5.00;4.60;
12542;PMS3003;6337;49.556;25.594;2022-09-23T09:45:32;4.30;3.90;
12542;PMS3003;6337;49.556;25.594;2022-09-23T09:48:08;4.60;3.70;
12542;PMS3003;6337;49.556;25.594;2022-09-23T09:50:41;4.13;3.77;
12542;PMS3003;6337;49.556;25.594;2022-09-23T09:53:15;4.10;3.50;
12542;PMS3003;6337;49.556;25.594;2022-09-23T09:55:50;5.10;4.00;
12542;PMS3003;6337;49.556;25.594;2022-09-23T09:58:31;4.13;3.80;
12542;PMS3003;6337;49.556;25.594;2022-09-23T10:01:08;6.00;3.83;
12542;PMS3003;6337;49.556;25.594;2022-09-23T10:03:43;5.60;3.37;
12542;PMS3003;6337;49.556;25.594;2022-09-23T10:06:15;7.00;3.50;
12542;PMS3003;6337;49.556;25.594;2022-09-23T10:09:01;9.13;3.50;
12542;PMS3003;6337;49.556;25.594;2022-09-23T10:11:36;6.73;3.20;
12542;PMS3003;6337;49.556;25.594;2022-09-23T10:14:09;5.20;4.37;
12542;PMS3003;6337;49.556;25.594;2022-09-23T10:16:38;6.77;5.47;
12542;PMS3003;6337;49.556;25.594;2022-09-23T10:19:17;9.50;5.87;
12542;PMS3003;6337;49.556;25.594;2022-09-23T10:21:51;7.37;6.43;
12542;PMS3003;6337;49.556;25.594;2022-09-23T10:24:24;11.33;7.03;
12542;PMS3003;6337;49.556;25.594;2022-09-23T10:26:55;16.13;8.30;
12542;PMS3003;6337;49.556;25.594;2022-09-23T10:29:29;10.63;8.03;
12542;PMS3003;6337;49.556;25.594;2022-09-23T10:34:45;15.40;8.57;
12542;PMS3003;6337;49.556;25.594;2022-09-23T10:37:15;13.60;8.50;
12542;PMS3003;6337;49.556;25.594;2022-09-23T10:39:45;14.47;9.63;
12542;PMS3003;6337;49.556;25.594;2022-09-23T10:42:30;10.10;7.60;
12542;PMS3003;6337;49.556;25.594;2022-09-23T10:45:30;7.80;5.13;
12542;PMS3003;6337;49.556;25.594;2022-09-23T10:48:18;8.77;4.27;
12542;PMS3003;6337;49.556;25.594;2022-09-23T10:50:51;6.53;4.00;
12542;PMS3003;6337;49.556;25.594;2022-09-23T10:53:21;5.00;3.80;
12542;PMS3003;6337;49.556;25.594;2022-09-23T10:55:59;3.67;3.37;
12542;PMS3003;6337;49.556;25.594;2022-09-23T11:01:39;10.03;5.33;
12542;PMS3003;6337;49.556;25.594;2022-09-23T11:04:17;12.10;5.53;
12542;PMS3003;6337;49.556;25.594;2022-09-23T11:07:15;8.77;5.73;
12542;PMS3003;6337;49.556;25.594;2022-09-23T11:09:53;13.10;6.00;
12542;PMS3003;6337;49.556;25.594;2022-09-23T11:12:44;8.17;5.97;
12542;PMS3003;6337;49.556;25.594;2022-09-23T11:15:23;7.17;6.23;
12542;PMS3003;6337;49.556;25.594;2022-09-23T11:18:04;10.43;7.37;
12542;PMS3003;6337;49.556;25.594;2022-09-23T11:20:47;12.07;7.47;
12542;PMS3003;6337;49.556;25.594;2022-09-23T11:23:26;11.53;8.73;
12542;PMS3003;6337;49.556;25.594;2022-09-23T11:26:07;15.40;9.77;
12542;PMS3003;6337;49.556;25.594;2022-09-23T11:28:51;31.50;11.03;
12542;PMS3003;6337;49.556;25.594;2022-09-23T11:31:41;13.73;10.30;
12542;PMS3003;6337;49.556;25.594;2022-09-23T11:34:20;13.10;8.10;
12542;PMS3003;6337;49.556;25.594;2022-09-23T11:37:00;11.50;7.40;
12542;PMS3003;6337;49.556;25.594;2022-09-23T11:39:31;12.73;9.03;
12542;PMS3003;6337;49.556;25.594;2022-09-23T11:42:02;12.57;8.70;
12542;PMS3003;6337;49.556;25.594;2022-09-23T11:44:39;12.50;9.10;
12542;PMS3003;6337;49.556;25.594;2022-09-23T11:47:10;13.70;8.90;
12542;PMS3003;6337;49.556;25.594;2022-09-23T11:49:46;13.33;7.17;
12542;PMS3003;6337;49.556;25.594;2022-09-23T11:52:17;11.80;7.97;
12542;PMS3003;6337;49.556;25.594;2022-09-23T11:54:48;12.40;5.97;
12542;PMS3003;6337;49.556;25.594;2022-09-23T11:57:20;9.13;7.00;
12542;PMS3003;6337;49.556;25.594;2022-09-23T11:59:50;10.93;7.43;
12542;PMS3003;6337;49.556;25.594;2022-09-23T12:02:23;11.80;7.73;
12542;PMS3003;6337;49.556;25.594;2022-09-23T12:04:56;11.67;8.43;
12542;PMS3003;6337;49.556;25.594;2022-09-23T12:07:28;11.13;7.40;
12542;PMS3003;6337;49.556;25.594;2022-09-23T12:10:02;6.50;5.70;
12542;PMS3003;6337;49.556;25.594;2022-09-23T12:12:34;6.90;5.80;
12542;PMS3003;6337;49.556;25.594;2022-09-23T12:15:05;7.77;5.80;
12542;PMS3003;6337;49.556;25.594;2022-09-23T12:17:45;6.27;5.63;
12542;PMS3003;6337;49.556;25.594;2022-09-23T12:20:28;4.63;4.23;
12542;PMS3003;6337;49.556;25.594;2022-09-23T12:23:07;5.63;5.10;
12542;PMS3003;6337;49.556;25.594;2022-09-23T12:25:41;9.63;6.90;
12542;PMS3003;6337;49.556;25.594;2022-09-23T12:28:12;7.00;5.33;
12542;PMS3003;6337;49.556;25.594;2022-09-23T12:30:42;9.03;4.67;
12542;PMS3003;6337;49.556;25.594;2022-09-23T12:33:15;4.33;3.90;
12542;PMS3003;6337;49.556;25.594;2022-09-23T12:35:50;7.30;4.80;
12542;PMS3003;6337;49.556;25.594;2022-09-23T12:38:20;5.43;4.93;
12542;PMS3003;6337;49.556;25.594;2022-09-23T12:40:52;6.70;5.60;
12542;PMS3003;6337;49.556;25.594;2022-09-23T12:43:26;4.10;3.80;
12542;PMS3003;6337;49.556;25.594;2022-09-23T12:48:42;5.07;4.57;
12542;PMS3003;6337;49.556;25.594;2022-09-23T12:51:27;5.07;4.57;
12542;PMS3003;6337;49.556;25.594;2022-09-23T12:53:59;5.50;4.93;
12542;PMS3003;6337;49.556;25.594;2022-09-23T12:59:29;3.90;3.60;
12542;PMS3003;6337;49.556;25.594;2022-09-23T13:02:12;4.10;3.80;
12542;PMS3003;6337;49.556;25.594;2022-09-23T13:04:52;3.93;3.50;
12542;PMS3003;6337;49.556;25.594;2022-09-23T13:07:43;4.07;3.70;
12542;PMS3003;6337;49.556;25.594;2022-09-23T13:10:13;4.17;3.23;
12542;PMS3003;6337;49.556;25.594;2022-09-23T13:12:44;3.90;3.60;
12542;PMS3003;6337;49.556;25.594;2022-09-23T13:15:15;3.47;3.27;
12542;PMS3003;6337;49.556;25.594;2022-09-23T13:17:43;4.17;3.60;
12542;PMS3003;6337;49.556;25.594;2022-09-23T13:20:31;6.37;3.83;
12542;PMS3003;6337;49.556;25.594;2022-09-23T13:25:53;2.80;2.60;
12542;PMS3003;6337;49.556;25.594;2022-09-23T13:28:26;3.20;3.00;
12542;PMS3003;6337;49.556;25.594;2022-09-23T13:30:56;4.60;4.20;
12542;PMS3003;6337;49.556;25.594;2022-09-23T13:36:09;3.47;3.27;
12542;PMS3003;6337;49.556;25.594;2022-09-23T13:38:41;5.23;3.47;
12542;PMS3003;6337;49.556;25.594;2022-09-23T13:41:12;5.97;5.27;
12542;PMS3003;6337;49.556;25.594;2022-09-23T13:43:42;3.63;3.13;
12542;PMS3003;6337;49.556;25.594;2022-09-23T13:46:12;5.37;3.53;
12542;PMS3003;6337;49.556;25.594;2022-09-23T13:48:42;3.60;2.80;
12542;PMS3003;6337;49.556;25.594;2022-09-23T13:51:14;4.83;4.00;
12542;PMS3003;6337;49.556;25.594;2022-09-23T13:53:53;3.27;2.97;
12542;PMS3003;6337;49.556;25.594;2022-09-23T13:56:22;3.73;3.53;
12542;PMS3003;6337;49.556;25.594;2022-09-23T13:58:50;4.30;2.90;
12542;PMS3003;6337;49.556;25.594;2022-09-23T14:01:21;2.57;2.40;
12542;PMS3003;6337;49.556;25.594;2022-09-23T14:03:54;2.30;2.10;
12542;PMS3003;6337;49.556;25.594;2022-09-23T14:06:21;2.27;2.17;
12542;PMS3003;6337;49.556;25.594;2022-09-23T14:08:50;6.83;2.77;
12542;PMS3003;6337;49.556;25.594;2022-09-23T14:11:27;13.80;2.80;
12542;PMS3003;6337;49.556;25.594;2022-09-23T14:13:58;3.27;2.67;
12542;PMS3003;6337;49.556;25.594;2022-09-23T14:16:31;4.40;1.93;
12542;PMS3003;6337;49.556;25.594;2022-09-23T14:19:03;7.70;2.47;
12542;PMS3003;6337;49.556;25.594;2022-09-23T14:21:34;3.40;2.37;
12542;PMS3003;6337;49.556;25.594;2022-09-23T14:24:12;2.43;2.20;
12542;PMS3003;6337;49.556;25.594;2022-09-23T14:26:43;2.00;1.83;
12542;PMS3003;6337;49.556;25.594;2022-09-23T14:29:12;3.43;2.20;
12542;PMS3003;6337;49.556;25.594;2022-09-23T14:31:41;5.03;2.37;
12542;PMS3003;6337;49.556;25.594;2022-09-23T14:34:43;2.77;2.30;
12542;PMS3003;6337;49.556;25.594;2022-09-23T14:37:18;1.73;1.63;
12542;PMS3003;6337;49.556;25.594;2022-09-23T14:40:09;1.60;1.50;
12542;PMS3003;6337;49.556;25.594;2022-09-23T14:42:40;1.77;1.30;
12542;PMS3003;6337;49.556;25.594;2022-09-23T14:45:11;1.80;1.10;
12542;PMS3003;6337;49.556;25.594;2022-09-23T14:47:42;4.30;1.50;
12542;PMS3003;6337;49.556;25.594;2022-09-23T14:50:13;4.83;1.60;
12542;PMS3003;6337;49.556;25.594;2022-09-23T14:53:22;1.77;1.67;
12542;PMS3003;6337;49.556;25.594;2022-09-23T14:56:22;1.70;1.60;
12542;PMS3003;6337;49.556;25.594;2022-09-23T14:58:52;2.00;1.80;
12542;PMS3003;6337;49.556;25.594;2022-09-23T15:01:23;4.10;1.50;
12542;PMS3003;6337;49.556;25.594;2022-09-23T15:04:10;2.60;2.00;
12542;PMS3003;6337;49.556;25.594;2022-09-23T15:06:42;7.00;3.30;
12542;PMS3003;6337;49.556;25.594;2022-09-23T15:09:15;4.10;2.20;
12542;PMS3003;6337;49.556;25.594;2022-09-23T15:11:45;5.60;2.17;
12542;PMS3003;6337;49.556;25.594;2022-09-23T15:14:19;2.47;1.83;
12542;PMS3003;6337;49.556;25.594;2022-09-23T15:16:47;4.67;2.40;
12542;PMS3003;6337;49.556;25.594;2022-09-23T15:19:15;3.00;1.60;
12542;PMS3003;6337;49.556;25.594;2022-09-23T15:21:45;3.23;1.67;
12542;PMS3003;6337;49.556;25.594;2022-09-23T15:24:35;3.50;2.27;
12542;PMS3003;6337;49.556;25.594;2022-09-23T15:27:09;2.60;1.20;
12542;PMS3003;6337;49.556;25.594;2022-09-23T15:29:45;2.33;2.00;
12542;PMS3003;6337;49.556;25.594;2022-09-23T15:32:12;5.23;2.03;
12542;PMS3003;6337;49.556;25.594;2022-09-23T15:34:43;3.33;1.60;
12542;PMS3003;6337;49.556;25.594;2022-09-23T15:37:11;4.83;1.50;
12542;PMS3003;6337;49.556;25.594;2022-09-23T15:39:38;3.20;2.10;
12542;PMS3003;6337;49.556;25.594;2022-09-23T15:42:07;1.93;1.83;
12542;PMS3003;6337;49.556;25.594;2022-09-23T15:44:35;4.80;2.30;
12542;PMS3003;6337;49.556;25.594;2022-09-23T15:47:04;1.93;1.83;
12542;PMS3003;6337;49.556;25.594;2022-09-23T15:49:35;2.83;2.40;
12542;PMS3003;6337;49.556;25.594;2022-09-23T15:52:04;8.30;2.17;
12542;PMS3003;6337;49.556;25.594;2022-09-23T15:54:37;1.90;1.80;
12542;PMS3003;6337;49.556;25.594;2022-09-23T15:57:04;4.90;1.73;
12542;PMS3003;6337;49.556;25.594;2022-09-23T15:59:32;2.37;2.00;
12542;PMS3003;6337;49.556;25.594;2022-09-23T16:02:00;3.90;2.50;